createdAt,value
2018-03-03T00:00:33.178Z,40.50
2018-03-03T00:03:00.711Z,41.10
2018-03-03T00:05:28.217Z,42.27
2018-03-03T00:07:56.570Z,41.27
2018-03-03T00:10:24.095Z,42.23
2018-03-03T00:12:51.606Z,42.37
2018-03-03T00:15:19.169Z,42.77
2018-03-03T00:17:47.441Z,43.07
2018-03-03T00:20:14.973Z,43.47
2018-03-03T00:22:42.478Z,41.80
2018-03-03T00:25:10.766Z,42.30
2018-03-03T00:27:38.271Z,44.70
2018-03-03T00:30:05.774Z,44.93
2018-03-03T00:32:33.298Z,44.60
2018-03-03T00:35:00.807Z,45.70
2018-03-03T00:37:28.338Z,43.20
2018-03-03T00:39:56.606Z,45.70
2018-03-03T00:42:24.899Z,44.50
2018-03-03T00:44:53.171Z,43.10
2018-03-03T00:47:21.462Z,44.87
2018-03-03T00:49:48.962Z,43.27
2018-03-03T00:52:16.466Z,44.10
2018-03-03T00:54:44.754Z,43.53
2018-03-03T00:57:12.258Z,45.20
2018-03-03T00:59:39.790Z,44.50
2018-03-03T01:02:07.294Z,44.37
2018-03-03T01:04:35.610Z,43.47
2018-03-03T01:07:03.114Z,43.40
2018-03-03T01:09:30.647Z,42.40
2018-03-03T01:11:58.150Z,43.57
2018-03-03T01:14:25.709Z,45.47
2018-03-03T01:16:53.193Z,43.67
2018-03-03T01:19:20.722Z,43.27
2018-03-03T01:21:48.228Z,43.53
2018-03-03T01:24:15.738Z,43.03
2018-03-03T01:26:43.266Z,44.27
2018-03-03T01:29:10.786Z,43.73
2018-03-03T01:31:38.318Z,42.57
2018-03-03T01:34:06.589Z,43.20
2018-03-03T01:36:34.117Z,44.33
2018-03-03T01:39:01.639Z,43.87
2018-03-03T01:41:29.166Z,45.57
2018-03-03T01:43:56.675Z,44.43
2018-03-03T01:46:24.180Z,45.17
2018-03-03T01:48:51.711Z,43.80
2018-03-03T01:51:30.937Z,44.10
2018-03-03T01:53:58.463Z,45.30
2018-03-03T01:56:25.971Z,46.70
2018-03-03T01:58:53.502Z,45.80
2018-03-03T02:01:21.005Z,44.57
2018-03-03T02:03:48.511Z,45.30
2018-03-03T02:06:16.046Z,44.67
2018-03-03T02:08:44.318Z,46.20
2018-03-03T02:11:12.615Z,45.57
2018-03-03T02:13:40.126Z,45.40
2018-03-03T02:16:07.659Z,48.33
2018-03-03T02:18:35.170Z,44.90
2018-03-03T02:21:03.437Z,46.13
2018-03-03T02:23:30.967Z,47.00
2018-03-03T02:25:58.486Z,46.63
2018-03-03T02:28:26.018Z,45.77
2018-03-03T02:30:54.290Z,46.27
2018-03-03T02:33:21.824Z,46.50
2018-03-03T02:35:49.331Z,47.13
2018-03-03T02:38:16.834Z,46.07
2018-03-03T02:40:44.359Z,46.40
2018-03-03T02:43:11.872Z,49.10
2018-03-03T02:45:39.403Z,49.03
2018-03-03T02:48:06.919Z,45.43
2018-03-03T02:50:35.221Z,44.23
2018-03-03T02:53:02.726Z,46.23
2018-03-03T02:55:30.230Z,46.33
2018-03-03T02:57:57.753Z,46.63
2018-03-03T03:00:25.257Z,44.37
2018-03-03T03:02:52.778Z,42.57
2018-03-03T03:05:21.046Z,44.20
2018-03-03T03:07:49.346Z,46.00
2018-03-03T03:10:17.624Z,44.83
2018-03-03T03:12:45.155Z,44.77
2018-03-03T03:15:13.427Z,42.27
2018-03-03T03:17:41.710Z,44.10
2018-03-03T03:20:09.233Z,43.30
2018-03-03T03:22:36.735Z,44.57
2018-03-03T03:25:05.022Z,44.37
2018-03-03T03:27:33.296Z,45.20
2018-03-03T03:30:01.595Z,46.30
2018-03-03T03:32:29.098Z,45.60
2018-03-03T03:34:56.597Z,44.63
2018-03-03T03:37:24.126Z,45.67
2018-03-03T03:39:51.630Z,45.20
2018-03-03T03:42:19.154Z,43.93
2018-03-03T03:44:47.423Z,44.17
2018-03-03T03:47:14.950Z,42.87
2018-03-03T03:49:42.458Z,42.43
2018-03-03T03:52:10.750Z,44.80
2018-03-03T03:54:38.254Z,43.57
2018-03-03T03:57:05.750Z,41.60
2018-03-03T03:59:34.038Z,43.20
2018-03-03T04:02:01.542Z,43.77
2018-03-03T04:04:29.072Z,43.03
2018-03-03T04:06:56.575Z,43.50
2018-03-03T04:09:24.110Z,43.60
2018-03-03T04:11:51.610Z,41.67
2018-03-03T04:14:19.883Z,44.27
2018-03-03T04:16:47.406Z,42.80
2018-03-03T04:19:14.906Z,42.07
2018-03-03T04:21:43.198Z,42.67
2018-03-03T04:24:11.462Z,43.23
2018-03-03T04:26:39.762Z,41.97
2018-03-03T04:29:07.268Z,42.23
2018-03-03T04:31:34.802Z,45.53
2018-03-03T04:34:02.314Z,43.50
2018-03-03T04:36:30.582Z,41.97
2018-03-03T04:38:58.879Z,40.77
2018-03-03T04:41:27.153Z,41.77
2018-03-03T04:43:55.442Z,41.03
2018-03-03T04:46:22.938Z,43.37
2018-03-03T04:48:50.468Z,41.87
2018-03-03T04:51:17.974Z,41.80
2018-03-03T04:53:45.502Z,42.00
2018-03-03T04:56:13.048Z,42.00
2018-03-03T04:58:41.594Z,42.67
2018-03-03T05:01:11.366Z,41.90
2018-03-03T05:06:50.927Z,41.90
2018-03-03T05:09:18.459Z,41.80
2018-03-03T05:11:45.958Z,42.10
2018-03-03T05:17:26.842Z,40.07
2018-03-03T05:23:11.518Z,40.93
2018-03-03T05:25:44.730Z,42.77
2018-03-03T05:28:20.786Z,39.87
2018-03-03T05:30:54.106Z,41.17
2018-03-03T05:33:28.126Z,39.10
2018-03-03T05:36:02.016Z,43.20
2018-03-03T05:38:32.269Z,42.27
2018-03-03T05:41:05.533Z,41.40
2018-03-03T05:46:43.414Z,39.87
2018-03-03T05:49:28.578Z,41.07
2018-03-03T05:52:01.699Z,41.37
2018-03-03T05:54:34.977Z,42.07
2018-03-03T05:57:08.293Z,40.47
2018-03-03T05:59:41.554Z,41.03
2018-03-03T06:05:12.962Z,39.37
2018-03-03T06:07:46.217Z,40.90
2018-03-03T06:10:13.655Z,39.40
2018-03-03T06:12:41.154Z,41.20
2018-03-03T06:15:08.679Z,40.20
2018-03-03T06:17:36.182Z,40.90
2018-03-03T06:20:03.708Z,42.00
2018-03-03T06:22:31.211Z,41.30
2018-03-03T06:24:58.738Z,42.23
2018-03-03T06:27:26.238Z,42.30
2018-03-03T06:29:54.508Z,41.00
2018-03-03T06:32:22.796Z,41.73
2018-03-03T06:34:51.062Z,41.13
2018-03-03T06:37:19.354Z,42.00
2018-03-03T06:39:47.618Z,39.57
2018-03-03T06:42:15.906Z,42.00
2018-03-03T06:44:44.170Z,41.30
2018-03-03T06:47:12.437Z,40.40
2018-03-03T06:49:40.726Z,42.27
2018-03-03T06:52:08.990Z,41.93
2018-03-03T06:54:36.518Z,39.90
2018-03-03T06:57:04.014Z,40.37
2018-03-03T06:59:32.307Z,39.87
2018-03-03T07:01:59.806Z,40.00
2018-03-03T07:04:27.325Z,41.40
2018-03-03T07:06:54.831Z,46.07
2018-03-03T07:09:22.357Z,41.20
2018-03-03T07:11:49.853Z,42.60
2018-03-03T07:14:17.353Z,41.97
2018-03-03T07:16:45.645Z,42.07
2018-03-03T07:19:13.141Z,40.87
2018-03-03T07:21:40.664Z,43.30
2018-03-03T07:24:08.170Z,40.73
2018-03-03T07:26:35.690Z,41.70
2018-03-03T07:29:03.192Z,40.47
2018-03-03T07:31:30.720Z,41.83
2018-03-03T07:33:58.222Z,42.17
2018-03-03T07:36:25.746Z,43.07
2018-03-03T07:38:53.246Z,43.00
2018-03-03T07:41:21.515Z,42.33
2018-03-03T07:43:49.805Z,42.73
2018-03-03T07:46:18.074Z,43.20
2018-03-03T07:48:46.369Z,41.10
2018-03-03T07:51:13.881Z,40.90
2018-03-03T07:53:41.401Z,42.13
2018-03-03T07:56:08.898Z,43.20
2018-03-03T07:58:48.374Z,40.97
2018-03-03T08:01:16.640Z,41.63
2018-03-03T08:03:44.914Z,41.60
2018-03-03T08:06:13.202Z,42.20
2018-03-03T08:08:41.470Z,41.93
2018-03-03T08:11:09.759Z,42.63
2018-03-03T08:13:38.022Z,42.90
2018-03-03T08:16:06.314Z,43.00
2018-03-03T08:18:33.814Z,42.10
2018-03-03T08:21:01.315Z,40.30
2018-03-03T08:23:29.613Z,42.33
2018-03-03T08:25:57.119Z,42.37
2018-03-03T08:28:24.642Z,43.13
2018-03-03T08:30:52.146Z,41.13
2018-03-03T08:33:19.671Z,42.10
2018-03-03T08:35:47.176Z,42.00
2018-03-03T08:38:14.678Z,42.57
2018-03-03T08:40:42.198Z,43.57
2018-03-03T08:43:10.471Z,40.10
2018-03-03T08:45:38.773Z,43.90
2018-03-03T08:48:06.278Z,42.57
2018-03-03T08:50:33.795Z,43.63
2018-03-03T08:53:01.290Z,43.40
2018-03-03T08:55:28.810Z,44.00
2018-03-03T08:57:56.310Z,44.37
2018-03-03T09:00:23.801Z,45.50
2018-03-03T09:02:52.086Z,44.07
2018-03-03T09:05:20.350Z,44.23
2018-03-03T09:07:47.870Z,45.67
2018-03-03T09:10:15.366Z,43.03
2018-03-03T09:12:42.886Z,45.40
2018-03-03T09:15:10.382Z,44.10
2018-03-03T09:17:37.901Z,44.27
2018-03-03T09:20:05.398Z,44.27
2018-03-03T09:22:32.906Z,44.23
2018-03-03T09:25:00.427Z,45.83
2018-03-03T09:27:28.690Z,44.87
2018-03-03T09:29:56.215Z,45.70
2018-03-03T09:32:23.714Z,47.07
2018-03-03T09:34:51.998Z,45.10
2018-03-03T09:37:20.263Z,44.90
2018-03-03T09:39:48.570Z,44.77
2018-03-03T09:42:16.065Z,44.20
2018-03-03T09:44:43.563Z,43.57
2018-03-03T09:47:11.851Z,44.83
2018-03-03T09:49:40.119Z,44.73
2018-03-03T09:52:08.406Z,46.97
2018-03-03T09:54:35.922Z,45.47
2018-03-03T09:57:03.450Z,47.57
2018-03-03T09:59:30.972Z,47.30
2018-03-03T10:02:06.292Z,45.10
2018-03-03T10:04:26.787Z,45.67
2018-03-03T10:06:54.287Z,46.30
2018-03-03T10:09:21.807Z,44.53
2018-03-03T10:11:49.307Z,45.70
2018-03-03T10:14:16.827Z,45.47
2018-03-03T10:16:44.323Z,47.00
2018-03-03T10:19:11.842Z,45.03
2018-03-03T10:21:39.338Z,46.70
2018-03-03T10:24:06.866Z,46.47
2018-03-03T10:26:35.130Z,45.90
2018-03-03T10:29:02.651Z,46.47
2018-03-03T10:31:30.150Z,47.00
2018-03-03T10:33:57.646Z,45.07
2018-03-03T10:36:25.167Z,46.10
2018-03-03T10:38:52.718Z,46.27
2018-03-03T10:41:20.242Z,45.07
2018-03-03T10:43:47.738Z,45.90
2018-03-03T10:46:15.262Z,48.67
2018-03-03T10:48:42.758Z,45.27
2018-03-03T10:51:10.280Z,46.07
2018-03-03T10:53:37.778Z,48.10
2018-03-03T10:56:05.299Z,47.17
2018-03-03T10:58:32.809Z,47.43
2018-03-03T11:01:01.087Z,47.87
2018-03-03T11:03:29.376Z,48.33
2018-03-03T11:05:56.882Z,46.50
2018-03-03T11:08:24.406Z,47.20
2018-03-03T11:10:51.915Z,48.70
2018-03-03T11:13:19.435Z,47.10
2018-03-03T11:15:46.940Z,48.80
2018-03-03T11:18:14.475Z,47.33
2018-03-03T11:20:41.983Z,47.50
2018-03-03T11:23:10.248Z,49.70
2018-03-03T11:25:38.541Z,48.27
2018-03-03T11:28:06.043Z,49.03
2018-03-03T11:30:33.565Z,47.67
2018-03-03T11:33:01.067Z,47.97
2018-03-03T11:35:28.599Z,48.20
2018-03-03T11:37:56.098Z,47.27
2018-03-03T11:40:23.622Z,48.20
2018-03-03T11:42:51.126Z,49.87
2018-03-03T11:45:19.394Z,49.07
2018-03-03T11:47:46.918Z,48.53
2018-03-03T11:50:14.416Z,48.50
2018-03-03T11:52:42.706Z,47.90
2018-03-03T11:55:10.970Z,48.40
2018-03-03T11:57:38.493Z,51.30
2018-03-03T12:00:05.994Z,50.07
2018-03-03T12:02:34.267Z,48.47
2018-03-03T12:05:01.791Z,49.00
2018-03-03T12:07:29.290Z,50.10
2018-03-03T12:09:57.578Z,48.90
2018-03-03T12:12:25.843Z,50.53
2018-03-03T12:14:54.129Z,47.50
2018-03-03T12:17:22.386Z,46.63
2018-03-03T12:19:49.895Z,50.13
2018-03-03T12:22:17.418Z,49.17
2018-03-03T12:24:45.683Z,49.60
2018-03-03T12:27:13.218Z,48.90
2018-03-03T12:29:40.722Z,47.83
2018-03-03T12:32:08.364Z,48.63
2018-03-03T12:34:36.631Z,51.03
2018-03-03T12:37:04.158Z,49.40
2018-03-03T12:39:31.663Z,50.00
2018-03-03T12:41:59.940Z,50.27
2018-03-03T12:44:27.473Z,50.30
2018-03-03T12:46:54.974Z,50.10
2018-03-03T12:49:22.492Z,50.20
2018-03-03T12:51:49.990Z,50.93
2018-03-03T12:54:17.510Z,50.97
2018-03-03T12:56:45.016Z,49.87
2018-03-03T12:59:12.538Z,50.57
2018-03-03T13:01:40.030Z,51.47
2018-03-03T13:04:07.531Z,51.80
2018-03-03T13:06:35.055Z,51.90
2018-03-03T13:09:02.554Z,51.50
2018-03-03T13:11:30.074Z,50.03
2018-03-03T13:13:57.570Z,51.17
2018-03-03T13:16:25.094Z,50.70
2018-03-03T13:18:52.589Z,50.60
2018-03-03T13:21:20.114Z,51.17
2018-03-03T13:23:47.615Z,53.30
2018-03-03T13:26:15.892Z,60.17
2018-03-03T13:28:44.182Z,58.47
2018-03-03T13:31:12.450Z,51.00
2018-03-03T13:33:39.973Z,52.90
2018-03-03T13:36:07.474Z,52.33
2018-03-03T13:38:35.762Z,54.00
2018-03-03T13:41:04.042Z,62.33
2018-03-03T13:43:31.565Z,61.57
2018-03-03T13:45:59.062Z,68.07
2018-03-03T13:48:26.562Z,59.93
2018-03-03T13:50:54.082Z,58.90
2018-03-03T13:53:21.582Z,54.47
2018-03-03T13:55:49.103Z,51.57
2018-03-03T13:58:16.609Z,55.10
2018-03-03T14:00:44.135Z,55.43
2018-03-03T14:03:11.635Z,53.87
2018-03-03T14:05:39.162Z,55.33
2018-03-03T14:08:06.657Z,55.60
2018-03-03T14:10:34.164Z,54.97
2018-03-03T14:13:01.690Z,52.20
2018-03-03T14:15:29.954Z,52.17
2018-03-03T14:17:57.482Z,54.50
2018-03-03T14:20:24.979Z,55.80
2018-03-03T14:22:53.272Z,51.60
2018-03-03T14:25:21.539Z,54.20
2018-03-03T14:27:49.826Z,52.03
2018-03-03T14:30:18.091Z,53.83
2018-03-03T14:32:46.363Z,53.50
2018-03-03T14:35:14.650Z,51.30
2018-03-03T14:37:42.918Z,52.33
2018-03-03T14:40:11.210Z,53.07
2018-03-03T14:42:38.711Z,55.10
2018-03-03T14:45:06.234Z,53.37
2018-03-03T14:47:33.735Z,54.00
2018-03-03T14:50:01.264Z,53.50
2018-03-03T14:52:28.762Z,54.23
2018-03-03T14:54:56.263Z,55.00
2018-03-03T14:57:23.782Z,51.90
2018-03-03T14:59:51.283Z,53.30
2018-03-03T15:02:18.810Z,54.70
2018-03-03T15:04:46.310Z,54.10
2018-03-03T15:07:13.834Z,55.03
2018-03-03T15:09:42.098Z,53.80
2018-03-03T15:12:09.627Z,53.10
2018-03-03T15:14:37.132Z,53.60
2018-03-03T15:17:05.423Z,52.47
2018-03-03T15:19:32.927Z,53.10
2018-03-03T15:22:00.434Z,53.17
2018-03-03T15:24:28.723Z,54.47
2018-03-03T15:26:56.225Z,54.13
2018-03-03T15:29:23.751Z,54.07
2018-03-03T15:31:51.254Z,54.00
2018-03-03T15:34:18.773Z,54.50
2018-03-03T15:36:46.275Z,55.30
2018-03-03T15:39:13.808Z,57.10
2018-03-03T15:41:41.305Z,56.23
2018-03-03T15:44:09.570Z,55.70
2018-03-03T15:46:37.093Z,49.83
2018-03-03T15:49:04.590Z,50.53
2018-03-03T15:51:32.118Z,52.77
2018-03-03T15:53:59.616Z,51.23
2018-03-03T15:56:27.941Z,51.83
2018-03-03T15:58:55.450Z,51.20
2018-03-03T16:01:22.966Z,52.47
2018-03-03T16:03:50.462Z,52.97
2018-03-03T16:06:17.963Z,53.50
2018-03-03T16:08:45.481Z,53.67
2018-03-03T16:11:12.981Z,52.60
2018-03-03T16:13:40.498Z,51.43
2018-03-03T16:16:08.002Z,50.80
2018-03-03T16:18:35.522Z,52.07
2018-03-03T16:21:03.786Z,51.70
2018-03-03T16:23:31.310Z,51.33
2018-03-03T16:25:58.814Z,52.40
2018-03-03T16:28:27.089Z,53.27
2018-03-03T16:30:55.374Z,50.57
2018-03-03T16:33:23.646Z,50.10
2018-03-03T16:35:51.938Z,51.87
2018-03-03T16:38:19.431Z,54.07
2018-03-03T16:40:46.958Z,53.10
2018-03-03T16:43:14.459Z,52.23
2018-03-03T16:45:41.983Z,53.43
2018-03-03T16:48:09.482Z,53.53
2018-03-03T16:50:36.982Z,51.27
2018-03-03T16:53:05.275Z,50.40
2018-03-03T16:55:32.778Z,51.07
2018-03-03T16:58:00.299Z,52.70
2018-03-03T17:00:27.798Z,52.53
2018-03-03T17:02:55.356Z,51.83
2018-03-03T17:05:22.843Z,53.73
2018-03-03T17:07:51.130Z,52.57
2018-03-03T17:10:19.394Z,50.47
2018-03-03T17:12:47.661Z,50.90
2018-03-03T17:15:15.190Z,50.43
2018-03-03T17:17:42.687Z,52.17
2018-03-03T17:20:10.974Z,53.10
2018-03-03T17:22:39.238Z,51.20
2018-03-03T17:25:07.522Z,49.43
2018-03-03T17:27:35.777Z,50.90
2018-03-03T17:30:03.302Z,49.57
2018-03-03T17:32:30.799Z,49.30
2018-03-03T17:34:58.321Z,50.20
2018-03-03T17:37:25.817Z,51.20
2018-03-03T17:39:53.313Z,51.20
2018-03-03T17:42:20.834Z,51.63
2018-03-03T17:44:48.335Z,52.30
2018-03-03T17:47:15.858Z,49.00
2018-03-03T17:49:44.118Z,50.60
2018-03-03T17:52:11.652Z,49.87
2018-03-03T17:54:39.146Z,49.60
2018-03-03T17:57:06.671Z,52.50
2018-03-03T17:59:34.171Z,52.63
2018-03-03T18:02:02.437Z,50.40
2018-03-03T18:04:29.962Z,53.57
2018-03-03T18:06:57.466Z,54.23
2018-03-03T18:09:25.750Z,50.67
2018-03-03T18:11:59.442Z,50.83
2018-03-03T18:14:27.726Z,51.17
2018-03-03T18:16:55.998Z,50.40
2018-03-03T18:19:39.963Z,53.10
2018-03-03T18:22:07.463Z,52.93
2018-03-03T18:24:36.579Z,52.17
2018-03-03T18:27:04.079Z,51.00
2018-03-03T18:29:31.578Z,48.00
2018-03-03T18:31:59.108Z,50.00
2018-03-03T18:34:26.611Z,49.10
2018-03-03T18:36:54.134Z,50.63
2018-03-03T18:39:21.679Z,49.17
2018-03-03T18:41:49.944Z,51.60
2018-03-03T18:44:17.445Z,50.20
2018-03-03T18:46:44.970Z,49.83
2018-03-03T18:49:12.466Z,51.70
2018-03-03T18:51:39.991Z,48.97
2018-03-03T18:54:07.510Z,51.17
2018-03-03T18:56:35.778Z,51.17
2018-03-03T18:59:03.310Z,52.20
2018-03-03T19:01:30.811Z,50.30
2018-03-03T19:03:59.103Z,53.27
2018-03-03T19:06:26.602Z,70.83
2018-03-03T19:08:54.127Z,57.93
2018-03-03T19:11:21.630Z,49.53
2018-03-03T19:13:49.157Z,48.27
2018-03-03T19:16:16.663Z,51.03
2018-03-03T19:18:44.166Z,47.83
2018-03-03T19:21:11.695Z,46.80
2018-03-03T19:23:39.962Z,47.57
2018-03-03T19:26:07.482Z,46.43
2018-03-03T19:28:34.979Z,46.67
2018-03-03T19:31:02.503Z,46.30
2018-03-03T19:33:30.003Z,45.80
2018-03-03T19:35:58.271Z,47.20
2018-03-03T19:38:25.794Z,49.30
2018-03-03T19:40:53.286Z,46.70
2018-03-03T19:43:20.807Z,47.30
2018-03-03T19:45:48.302Z,45.97
2018-03-03T19:48:15.823Z,47.60
2018-03-03T19:50:43.325Z,46.37
2018-03-03T19:53:11.619Z,48.27
2018-03-03T19:55:39.885Z,46.03
2018-03-03T19:58:08.147Z,48.60
2018-03-03T20:00:35.671Z,46.47
2018-03-03T20:03:03.175Z,47.23
2018-03-03T20:05:31.467Z,47.40
2018-03-03T20:07:58.967Z,47.63
2018-03-03T20:10:26.486Z,46.83
2018-03-03T20:12:53.985Z,48.33
2018-03-03T20:15:21.508Z,46.70
2018-03-03T20:17:49.011Z,46.70
2018-03-03T20:20:16.505Z,67.67
2018-03-03T20:22:44.790Z,48.13
2018-03-03T20:25:13.055Z,47.73
2018-03-03T20:27:41.342Z,46.70
2018-03-03T20:30:09.606Z,47.83
2018-03-03T20:32:37.894Z,49.07
2018-03-03T20:35:06.160Z,54.50
2018-03-03T20:37:34.451Z,52.57
2018-03-03T20:40:01.955Z,52.57
2018-03-03T20:42:29.453Z,50.37
2018-03-03T20:44:57.742Z,54.07
2018-03-03T20:47:26.006Z,53.90
2018-03-03T20:49:54.294Z,54.00
2018-03-03T20:52:22.558Z,51.30
2018-03-03T20:54:50.854Z,52.97
2018-03-03T20:57:18.353Z,54.37
2018-03-03T20:59:45.883Z,53.77
2018-03-03T21:02:13.383Z,54.23
2018-03-03T21:04:40.878Z,54.10
2018-03-03T21:07:09.166Z,52.40
2018-03-03T21:09:36.666Z,52.90
2018-03-03T21:12:04.187Z,51.87
2018-03-03T21:14:31.691Z,52.83
2018-03-03T21:16:59.211Z,52.73
2018-03-03T21:19:26.717Z,54.20
2018-03-03T21:21:54.237Z,53.27
2018-03-03T21:24:21.740Z,55.30
2018-03-03T21:26:49.242Z,54.67
2018-03-03T21:29:16.762Z,54.40
2018-03-03T21:31:45.030Z,54.17
2018-03-03T21:34:12.554Z,55.40
2018-03-03T21:36:40.049Z,56.10
2018-03-03T21:39:07.571Z,55.43
2018-03-03T21:41:35.115Z,53.70
2018-03-03T21:44:02.638Z,52.80
2018-03-03T21:46:30.902Z,53.30
2018-03-03T21:48:58.408Z,54.07
2018-03-03T21:51:25.933Z,54.23
2018-03-03T21:53:54.198Z,52.40
2018-03-03T21:56:21.722Z,57.93
2018-03-03T21:58:49.219Z,57.90
2018-03-03T22:01:16.738Z,55.77
2018-03-03T22:03:44.235Z,55.73
2018-03-03T22:06:12.529Z,54.03
2018-03-03T22:08:40.794Z,53.97
2018-03-03T22:11:09.082Z,52.27
2018-03-03T22:13:37.352Z,53.07
2018-03-03T22:16:05.631Z,54.67
2018-03-03T22:18:33.914Z,52.50
2018-03-03T22:21:02.179Z,54.10
2018-03-03T22:23:30.471Z,52.47
2018-03-03T22:25:57.974Z,51.00
2018-03-03T22:28:25.500Z,52.00
2018-03-03T22:30:52.998Z,53.23
2018-03-03T22:33:20.523Z,50.30
2018-03-03T22:35:48.022Z,50.23
2018-03-03T22:38:16.300Z,48.57
2018-03-03T22:40:43.822Z,49.67
2018-03-03T22:43:11.317Z,51.37
2018-03-03T22:45:38.842Z,48.47
2018-03-03T22:48:06.339Z,48.97
2018-03-03T22:50:34.626Z,50.43
2018-03-03T22:53:02.128Z,51.77
2018-03-03T22:55:29.674Z,49.70
2018-03-03T22:57:57.174Z,50.40
2018-03-03T23:00:24.698Z,49.00
2018-03-03T23:02:52.202Z,49.87
2018-03-03T23:05:19.727Z,50.50
2018-03-03T23:07:47.246Z,50.60
2018-03-03T23:10:15.510Z,49.50
2018-03-03T23:12:43.035Z,49.17
2018-03-03T23:15:10.534Z,48.60
2018-03-03T23:17:38.823Z,48.20
2018-03-03T23:20:07.086Z,49.50
2018-03-03T23:22:35.379Z,50.20
2018-03-03T23:25:02.878Z,46.10
2018-03-03T23:27:30.374Z,48.80
2018-03-03T23:29:57.899Z,49.40
2018-03-03T23:32:25.396Z,46.73
2018-03-03T23:34:53.686Z,49.23
2018-03-03T23:37:21.958Z,49.47
2018-03-03T23:39:50.250Z,48.90
2018-03-03T23:42:17.758Z,50.33
2018-03-03T23:44:45.286Z,50.03
2018-03-03T23:47:12.786Z,49.57
2018-03-03T23:49:40.288Z,47.83
2018-03-03T23:52:07.818Z,48.70
2018-03-03T23:54:36.082Z,47.87
2018-03-03T23:57:03.602Z,49.43
2018-03-03T23:59:31.098Z,48.33
